Time;durP1;ratioP1;P1;durP2;ratioP2;P2;SDS_P1;SDS_P2;PMS_P1;PMS_P2;Temp;Humidity;BMP_temperature;BMP_pressure;BME280_temperature;BME280_humidity;BME280_pressure;Samples;Min_cycle;Max_cycle;Signal;HPM_P1;HPM_P2
2022/01/19 05:04:02;;;;;;;15.67;10.27;;;1.10;99.90;;;;;;4956538;29;20939;-72
2022/01/19 05:06:31;;;;;;;17.60;10.60;;;1.00;99.90;;;;;;4956300;29;21021;-72
2022/01/19 05:09:06;;;;;;;15.83;10.43;;;1.00;99.90;;;;;;4956478;29;20504;-72
2022/01/19 05:14:17;;;;;;;20.20;10.80;;;0.90;99.90;;;;;;4956801;29;20417;-72
2022/01/19 05:16:45;;;;;;;18.17;10.30;;;0.90;99.90;;;;;;4955796;28;20543;-72
2022/01/19 05:19:12;;;;;;;22.90;10.97;;;0.90;99.90;;;;;;4956072;28;20532;-72
2022/01/19 05:21:39;;;;;;;15.93;11.13;;;0.90;99.90;;;;;;4956055;28;20583;-72
2022/01/19 05:24:07;;;;;;;18.40;10.20;;;1.00;99.90;;;;;;4956140;29;20459;-72
2022/01/19 05:26:36;;;;;;;16.47;8.97;;;0.90;99.90;;;;;;4955726;29;20493;-72
2022/01/19 05:29:03;;;;;;;18.10;9.70;;;1.00;99.90;;;;;;4955721;29;20456;-72
2022/01/19 05:31:30;;;;;;;13.80;9.53;;;1.00;99.90;;;;;;4956110;28;20515;-73
2022/01/19 05:33:59;;;;;;;14.87;9.47;;;1.00;99.90;;;;;;4955906;29;20532;-74
2022/01/19 05:36:26;;;;;;;17.57;9.97;;;1.00;99.90;;;;;;4955733;28;21016;-72
2022/01/19 05:38:53;;;;;;;18.93;10.27;;;1.00;99.90;;;;;;4955324;29;20870;-72
2022/01/19 05:41:21;;;;;;;13.97;9.73;;;1.00;99.90;;;;;;4955769;28;20580;-72
2022/01/19 05:43:48;;;;;;;16.47;10.10;;;1.00;99.90;;;;;;4955689;29;20467;-72
2022/01/19 05:46:15;;;;;;;15.67;9.57;;;1.00;99.90;;;;;;4955509;29;20580;-71
2022/01/19 05:48:42;;;;;;;19.90;11.20;;;0.90;99.90;;;;;;4955678;29;20885;-72
2022/01/19 05:51:10;;;;;;;15.23;9.20;;;0.90;99.90;;;;;;4955315;28;20564;-71
2022/01/19 05:53:37;;;;;;;15.23;9.57;;;0.90;99.90;;;;;;4954747;28;20859;-72
2022/01/19 05:56:05;;;;;;;14.63;8.90;;;0.90;99.90;;;;;;4955632;28;20532;-72
2022/01/19 05:58:32;;;;;;;16.53;10.47;;;0.90;99.90;;;;;;4955175;29;21075;-71
2022/01/19 06:00:59;;;;;;;16.90;10.13;;;0.90;99.90;;;;;;4954994;28;20992;-71
2022/01/19 06:03:26;;;;;;;15.03;10.33;;;0.90;99.90;;;;;;4955226;29;20491;-71
2022/01/19 06:05:53;;;;;;;16.50;10.80;;;0.90;99.90;;;;;;4954813;29;20537;-71
2022/01/19 06:08:40;;;;;;;25.23;10.87;;;0.90;99.90;;;;;;4954565;28;20485;-72
2022/01/19 06:11:07;;;;;;;20.20;9.97;;;0.80;99.90;;;;;;4955159;28;20479;-72
2022/01/19 06:13:34;;;;;;;28.57;13.70;;;0.80;99.90;;;;;;4955149;29;20555;-72
2022/01/19 06:16:01;;;;;;;23.07;13.77;;;0.80;99.90;;;;;;4955313;28;20453;-72
2022/01/19 06:18:28;;;;;;;18.73;11.13;;;0.80;99.90;;;;;;4955161;28;20457;-72
2022/01/19 06:20:55;;;;;;;19.73;9.20;;;0.80;99.90;;;;;;4955138;28;20516;-72
2022/01/19 06:23:24;;;;;;;17.87;10.33;;;0.80;99.90;;;;;;4955040;29;20551;-73
2022/01/19 06:25:51;;;;;;;19.20;10.23;;;0.80;99.90;;;;;;4954553;29;20965;-64
2022/01/19 06:28:18;;;;;;;18.77;10.57;;;0.80;99.90;;;;;;4954770;29;20507;-64
2022/01/19 06:30:45;;;;;;;22.43;11.03;;;0.80;99.90;;;;;;4954493;28;20992;-63
2022/01/19 06:33:12;;;;;;;25.13;12.00;;;0.80;99.90;;;;;;4954964;29;20535;-63
2022/01/19 06:35:39;;;;;;;17.40;10.10;;;0.80;99.90;;;;;;4954914;28;20512;-63
2022/01/19 06:38:05;;;;;;;21.70;12.07;;;0.80;99.90;;;;;;4955174;29;20463;-74
2022/01/19 06:40:34;;;;;;;18.47;11.53;;;0.90;99.90;;;;;;4955135;28;20573;-73
2022/01/19 06:43:01;;;;;;;20.40;11.97;;;0.90;99.90;;;;;;4955130;29;20539;-73
2022/01/19 06:45:27;;;;;;;19.83;12.20;;;1.00;99.90;;;;;;4954558;28;20919;-73
2022/01/19 06:47:54;;;;;;;23.13;12.50;;;1.00;99.90;;;;;;4954391;28;20576;-73
2022/01/19 06:50:23;;;;;;;21.73;10.90;;;1.10;99.90;;;;;;4954247;28;20536;-72
2022/01/19 06:52:50;;;;;;;19.17;11.70;;;1.10;99.90;;;;;;4954452;29;20456;-72
2022/01/19 06:55:19;;;;;;;19.53;11.10;;;1.10;99.90;;;;;;4954628;28;20543;-72
2022/01/19 06:57:47;;;;;;;16.77;11.13;;;1.20;99.90;;;;;;4954981;29;20539;-73
2022/01/19 07:00:15;;;;;;;20.50;11.70;;;1.20;99.90;;;;;;4954846;28;20495;-72
2022/01/19 07:02:42;;;;;;;22.97;11.37;;;1.20;99.90;;;;;;4956177;29;20536;-72
2022/01/19 07:05:09;;;;;;;19.43;10.90;;;1.30;99.90;;;;;;4954130;28;20548;-72
2022/01/19 07:07:36;;;;;;;20.20;11.27;;;1.30;99.90;;;;;;4954216;28;20493;-73
2022/01/19 07:10:04;;;;;;;17.30;11.10;;;1.30;99.90;;;;;;4953955;29;20460;-72
2022/01/19 07:12:31;;;;;;;29.27;13.70;;;1.40;99.90;;;;;;4954175;28;21068;-73
2022/01/19 07:14:59;;;;;;;27.13;14.13;;;1.40;99.90;;;;;;4951637;28;20539;-73
2022/01/19 07:17:29;;;;;;;25.47;13.53;;;1.30;99.90;;;;;;4953382;29;20455;-74
2022/01/19 07:19:56;;;;;;;31.30;14.67;;;1.40;99.90;;;;;;4953650;29;20945;-73
2022/01/19 07:22:23;;;;;;;28.10;13.60;;;1.40;99.90;;;;;;4954031;28;21082;-73
2022/01/19 07:24:50;;;;;;;30.97;13.00;;;1.40;99.90;;;;;;4953758;29;20952;-74
2022/01/19 07:27:17;;;;;;;25.17;13.87;;;1.40;99.90;;;;;;4953729;29;20496;-74
2022/01/19 07:29:44;;;;;;;25.50;13.57;;;1.40;99.90;;;;;;4953627;29;20551;-74
2022/01/19 07:32:12;;;;;;;26.73;12.73;;;1.40;99.90;;;;;;4954184;28;20575;-74
2022/01/19 07:34:39;;;;;;;23.80;12.83;;;1.50;99.90;;;;;;4954217;29;20461;-74
2022/01/19 07:37:07;;;;;;;26.63;13.87;;;1.50;99.90;;;;;;4953923;29;21008;-74
2022/01/19 07:39:34;;;;;;;22.83;14.10;;;1.50;99.90;;;;;;4953659;29;20839;-74
2022/01/19 07:42:01;;;;;;;26.70;13.67;;;1.50;99.90;;;;;;4953500;28;21027;-74
2022/01/19 07:44:27;;;;;;;31.27;15.17;;;1.60;99.90;;;;;;4953936;29;20461;-74
2022/01/19 07:46:54;;;;;;;20.20;12.67;;;1.60;99.90;;;;;;4953766;29;20587;-74
2022/01/19 07:49:23;;;;;;;27.67;16.40;;;1.60;99.90;;;;;;4953334;29;20493;-74
2022/01/19 07:51:50;;;;;;;29.20;13.90;;;1.60;99.90;;;;;;4953816;28;20511;-74
2022/01/19 07:54:16;;;;;;;27.27;14.30;;;1.70;99.90;;;;;;4953587;29;20548;-74
2022/01/19 07:56:46;;;;;;;25.57;14.27;;;1.70;99.90;;;;;;4953350;29;20544;-75
2022/01/19 07:59:15;;;;;;;21.30;12.87;;;1.70;99.90;;;;;;4953613;29;20468;-74
2022/01/19 08:01:42;;;;;;;32.23;15.33;;;1.70;99.90;;;;;;4953624;28;20597;-74
2022/01/19 08:04:09;;;;;;;21.57;13.50;;;1.70;99.90;;;;;;4953992;29;20925;-74
2022/01/19 08:06:37;;;;;;;26.40;14.97;;;1.80;99.90;;;;;;4953618;29;20547;-74
2022/01/19 08:09:05;;;;;;;32.80;16.20;;;1.70;99.90;;;;;;4953206;29;20489;-74
2022/01/19 08:11:32;;;;;;;30.53;14.17;;;1.80;99.90;;;;;;4953327;28;20569;-73
2022/01/19 08:13:59;;;;;;;26.33;15.27;;;1.80;99.90;;;;;;4953659;29;20532;-74
2022/01/19 08:16:26;;;;;;;23.17;14.27;;;1.80;99.90;;;;;;4954430;28;20491;-74
2022/01/19 08:18:53;;;;;;;31.33;16.17;;;1.80;99.90;;;;;;4957108;29;20547;-73
2022/01/19 08:21:20;;;;;;;22.77;14.77;;;1.90;99.90;;;;;;4957174;28;20559;-74
2022/01/19 08:23:48;;;;;;;27.50;14.50;;;1.90;99.90;;;;;;4957049;29;20973;-74
2022/01/19 08:26:16;;;;;;;28.50;16.63;;;1.90;99.90;;;;;;4957357;29;20552;-74
2022/01/19 08:28:44;;;;;;;27.33;15.70;;;2.00;99.90;;;;;;4956880;29;20536;-74
2022/01/19 08:31:11;;;;;;;25.50;15.10;;;2.00;99.90;;;;;;4956862;28;20567;-74
2022/01/19 08:33:37;;;;;;;20.73;14.10;;;2.10;99.90;;;;;;4956964;29;20544;-74
2022/01/19 08:36:05;;;;;;;24.63;14.60;;;2.10;99.90;;;;;;4956858;29;20573;-74
2022/01/19 08:38:32;;;;;;;29.37;14.47;;;2.20;99.90;;;;;;4957008;29;20532;-75
2022/01/19 08:41:01;;;;;;;24.17;16.03;;;2.30;99.90;;;;;;4956800;28;20519;-75
2022/01/19 08:43:28;;;;;;;27.07;15.13;;;2.30;99.90;;;;;;4957064;29;20540;-75
2022/01/19 08:45:56;;;;;;;27.40;16.70;;;2.30;99.90;;;;;;4956924;29;20548;-75
2022/01/19 08:48:23;;;;;;;32.43;16.40;;;2.40;99.90;;;;;;4956542;29;21090;-75
2022/01/19 08:50:50;;;;;;;26.97;14.17;;;2.40;99.90;;;;;;4956275;28;20527;-75
2022/01/19 08:53:17;;;;;;;23.73;13.90;;;2.50;99.90;;;;;;4956875;29;20543;-75
2022/01/19 08:55:44;;;;;;;24.83;14.40;;;2.50;99.90;;;;;;4956899;29;21070;-75
2022/01/19 08:58:13;;;;;;;29.53;17.63;;;2.60;99.90;;;;;;4956799;29;20457;-75
2022/01/19 09:00:41;;;;;;;24.53;15.57;;;2.70;99.90;;;;;;4956101;28;20480;-75
2022/01/19 09:03:08;;;;;;;27.23;15.37;;;2.80;99.90;;;;;;4956423;29;20539;-75
2022/01/19 09:05:35;;;;;;;19.13;12.83;;;2.80;99.90;;;;;;4956632;29;20540;-75
2022/01/19 09:08:02;;;;;;;21.93;13.67;;;2.90;99.90;;;;;;4956566;29;20575;-75
2022/01/19 09:10:29;;;;;;;19.87;11.33;;;3.00;99.90;;;;;;4956749;28;20650;-74
2022/01/19 09:12:56;;;;;;;19.30;12.27;;;3.00;99.90;;;;;;4956299;29;20453;-74
2022/01/19 09:15:24;;;;;;;20.03;12.13;;;3.10;99.90;;;;;;4956393;29;20487;-74
2022/01/19 09:17:52;;;;;;;24.20;13.73;;;3.20;99.90;;;;;;4956202;29;20499;-74
2022/01/19 09:20:20;;;;;;;16.53;12.93;;;3.30;99.90;;;;;;4955860;28;20457;-75
2022/01/19 09:22:47;;;;;;;19.30;12.97;;;3.40;99.90;;;;;;4956453;29;20923;-74
2022/01/19 09:25:17;;;;;;;17.17;12.30;;;3.40;99.90;;;;;;4956314;29;20544;-74
2022/01/19 09:27:44;;;;;;;18.83;11.90;;;3.50;99.90;;;;;;4955529;28;20575;-73
2022/01/19 09:30:14;;;;;;;21.13;13.63;;;3.60;99.90;;;;;;4955642;28;20547;-74
2022/01/19 09:32:44;;;;;;;25.23;12.57;;;3.70;99.90;;;;;;4956510;29;20459;-75
2022/01/19 09:35:11;;;;;;;21.73;14.00;;;3.80;99.90;;;;;;4956641;29;20453;-73
2022/01/19 09:37:40;;;;;;;20.77;13.03;;;3.90;99.90;;;;;;4956113;29;20455;-73
2022/01/19 09:40:08;;;;;;;25.80;12.20;;;3.80;99.90;;;;;;4955748;29;20539;-74
2022/01/19 09:42:35;;;;;;;18.53;12.10;;;3.70;99.90;;;;;;4955863;28;20539;-74
2022/01/19 09:45:06;;;;;;;22.13;12.43;;;3.60;99.90;;;;;;4955774;29;20485;-74
2022/01/19 09:47:33;;;;;;;17.83;12.23;;;3.50;99.90;;;;;;4955727;29;20489;-74
2022/01/19 09:50:04;;;;;;;19.43;12.47;;;3.60;99.90;;;;;;4955497;29;20539;-74
2022/01/19 09:52:33;;;;;;;20.90;13.60;;;3.60;99.90;;;;;;4955330;28;20531;-75
2022/01/19 09:55:00;;;;;;;20.77;13.60;;;3.60;99.90;;;;;;4947712;29;20452;-74
2022/01/19 09:57:27;;;;;;;24.53;15.23;;;3.50;99.90;;;;;;4955780;29;20532;-74
2022/01/19 09:59:54;;;;;;;22.30;12.77;;;3.60;99.90;;;;;;4955333;29;20449;-74
2022/01/19 10:02:21;;;;;;;19.70;12.87;;;3.50;99.90;;;;;;4955112;29;20568;-74
2022/01/19 10:04:49;;;;;;;20.60;12.63;;;3.60;99.90;;;;;;4955574;29;20459;-65
2022/01/19 10:07:20;;;;;;;22.87;13.37;;;3.60;99.90;;;;;;4955358;29;20535;-65
2022/01/19 10:09:57;;;;;;;22.03;12.90;;;3.50;99.90;;;;;;4954958;29;21213;-65
2022/01/19 10:18:09;;;;;;;21.60;13.87;;;3.60;99.90;;;;;;4936095;29;20981;-76
2022/01/19 10:20:36;;;;;;;21.60;13.10;;;3.60;99.90;;;;;;4935836;29;20558;-73
2022/01/19 10:23:05;;;;;;;23.93;14.63;;;3.70;99.90;;;;;;4936144;29;20529;-73
2022/01/19 10:25:48;;;;;;;24.67;14.83;;;4.00;99.90;;;;;;4935927;29;20541;-74
2022/01/19 10:28:15;;;;;;;19.90;13.13;;;4.30;99.90;;;;;;4933484;29;21017;-74
2022/01/19 10:30:42;;;;;;;23.63;13.43;;;4.40;99.90;;;;;;4935473;29;20493;-74
2022/01/19 10:33:09;;;;;;;22.93;14.30;;;4.60;99.90;;;;;;4936055;29;20495;-74
2022/01/19 10:35:37;;;;;;;20.53;12.63;;;4.60;99.90;;;;;;4935625;29;20542;-75
2022/01/19 10:38:16;;;;;;;25.53;14.90;;;4.60;99.90;;;;;;4935799;29;20486;-74
2022/01/19 10:40:46;;;;;;;20.17;13.10;;;4.60;99.90;;;;;;4935335;29;20486;-75
2022/01/19 10:43:27;;;;;;;25.30;12.30;;;4.70;99.90;;;;;;4935635;29;20473;-75
2022/01/19 10:45:55;;;;;;;21.90;13.83;;;4.80;99.90;;;;;;4935459;29;20500;-75
2022/01/19 10:48:36;;;;;;;19.43;13.70;;;4.80;99.90;;;;;;4935615;29;20585;-75
2022/01/19 10:51:12;;;;;;;22.23;12.83;;;5.00;99.90;;;;;;4935196;29;20990;-73
2022/01/19 10:53:42;;;;;;;21.50;13.10;;;5.30;99.90;;;;;;4935388;29;20449;-74
2022/01/19 10:56:24;;;;;;;17.80;11.13;;;5.30;99.90;;;;;;4935703;29;20446;-74
2022/01/19 10:58:59;;;;;;;20.17;11.70;;;5.30;99.90;;;;;;4935056;29;20460;-73
2022/01/19 11:01:37;;;;;;;19.53;10.63;;;5.30;99.90;;;;;;4935150;29;20520;-73
2022/01/19 11:04:28;;;;;;;17.87;12.20;;;5.30;99.90;;;;;;4935159;29;20829;-73
2022/01/19 11:06:57;;;;;;;19.53;12.80;;;5.20;99.90;;;;;;4935388;29;20544;-74
2022/01/19 11:09:28;;;;;;;18.07;11.37;;;5.30;99.90;;;;;;4935002;29;20585;-74
2022/01/19 11:11:58;;;;;;;17.60;11.90;;;5.40;99.90;;;;;;4935129;29;20534;-74
2022/01/19 11:14:26;;;;;;;19.77;11.90;;;5.50;99.90;;;;;;4974029;23;20827;-76
2022/01/19 11:16:54;;;;;;;19.47;11.97;;;5.50;99.90;;;;;;4925611;29;20458;-76
2022/01/19 11:19:22;;;;;;;19.80;12.60;;;5.50;99.90;;;;;;4924702;29;20546;-76
2022/01/19 11:22:04;;;;;;;17.80;11.57;;;5.70;99.90;;;;;;4915184;29;20461;-77
2022/01/19 11:24:41;;;;;;;16.60;11.07;;;5.70;99.90;;;;;;4911621;29;20479;-76
2022/01/19 11:27:08;;;;;;;14.90;9.93;;;5.80;99.90;;;;;;4897523;29;20559;-76
2022/01/19 11:29:37;;;;;;;13.93;10.07;;;5.70;99.90;;;;;;4896857;29;20527;-76
2022/01/19 11:32:15;;;;;;;14.70;10.03;;;5.70;99.90;;;;;;4897308;29;20551;-76
2022/01/19 11:34:46;;;;;;;20.20;10.83;;;5.70;99.90;;;;;;4897149;29;20475;-76
2022/01/19 11:37:15;;;;;;;17.83;11.07;;;5.70;99.90;;;;;;4897066;29;20940;-76
2022/01/19 11:40:05;;;;;;;17.60;11.70;;;5.60;99.90;;;;;;4896882;29;20904;-76
2022/01/19 11:42:32;;;;;;;17.33;10.80;;;5.70;99.90;;;;;;4896860;29;20960;-76
2022/01/19 11:44:59;;;;;;;18.13;10.20;;;5.70;99.90;;;;;;4897290;29;20558;-76
2022/01/19 11:47:29;;;;;;;20.30;11.50;;;5.70;99.90;;;;;;4897388;29;20483;-76
2022/01/19 11:49:59;;;;;;;15.50;11.33;;;5.70;99.90;;;;;;4896574;29;20500;-76
2022/01/19 11:52:53;;;;;;;15.30;10.87;;;5.80;99.90;;;;;;4902562;29;20459;-76
2022/01/19 11:55:24;;;;;;;14.87;11.00;;;5.90;99.90;;;;;;4903576;29;21003;-76
2022/01/19 11:58:12;;;;;;;14.57;10.10;;;6.00;99.90;;;;;;4903883;29;20459;-79
2022/01/19 12:00:40;;;;;;;16.03;10.50;;;6.10;99.90;;;;;;4906374;29;20479;-79
2022/01/19 12:03:18;;;;;;;17.10;10.47;;;6.20;99.90;;;;;;4907589;29;20538;-79
2022/01/19 12:05:46;;;;;;;18.03;11.33;;;6.20;99.90;;;;;;4908066;29;20570;-81
2022/01/19 12:08:27;;;;;;;16.10;10.77;;;6.20;99.90;;;;;;4909316;29;21175;-79
2022/01/19 12:10:58;;;;;;;13.77;10.33;;;6.30;99.90;;;;;;4909302;29;20465;-79
2022/01/19 12:13:41;;;;;;;23.60;11.10;;;6.50;99.90;;;;;;4909642;29;20459;-79
2022/01/19 12:16:14;;;;;;;13.50;9.00;;;6.50;99.90;;;;;;4910967;29;20483;-79
2022/01/19 12:18:45;;;;;;;18.97;10.77;;;6.60;99.90;;;;;;4909569;29;20491;-78
2022/01/19 12:21:14;;;;;;;15.60;10.90;;;6.60;99.90;;;;;;4908472;29;20465;-80
2022/01/19 12:23:43;;;;;;;17.80;11.00;;;6.60;99.90;;;;;;4908841;29;20466;-79
2022/01/19 12:26:13;;;;;;;16.97;10.43;;;6.60;99.90;;;;;;4908962;29;20559;-80
2022/01/19 12:28:44;;;;;;;15.43;10.50;;;6.70;99.90;;;;;;4907745;29;20527;-78
2022/01/19 12:31:33;;;;;;;18.03;10.13;;;6.80;99.90;;;;;;4912201;29;20459;-79
2022/01/19 12:34:20;;;;;;;13.17;9.70;;;6.70;99.90;;;;;;4909844;29;20491;-79
2022/01/19 12:36:50;;;;;;;13.73;9.90;;;6.80;99.90;;;;;;4908967;29;20885;-80
2022/01/19 12:39:40;;;;;;;20.90;10.00;;;6.70;99.90;;;;;;4912320;29;20474;-79
2022/01/19 12:42:13;;;;;;;14.33;10.07;;;6.80;99.90;;;;;;4906637;29;20816;-80
2022/01/19 12:44:47;;;;;;;13.83;9.33;;;6.90;99.90;;;;;;4906763;29;20480;-80
2022/01/19 12:47:46;;;;;;;14.33;10.13;;;6.80;99.90;;;;;;4906940;29;20554;-80
2022/01/19 12:50:36;;;;;;;12.60;9.50;;;6.90;99.90;;;;;;4906744;29;20531;-79
2022/01/19 12:53:12;;;;;;;14.23;8.97;;;6.90;99.90;;;;;;4906031;29;21014;-80
2022/01/19 12:55:42;;;;;;;16.57;9.47;;;6.90;99.90;;;;;;4905502;29;20518;-79
2022/01/19 12:58:13;;;;;;;18.73;9.70;;;6.90;99.90;;;;;;4905709;29;20461;-79
2022/01/19 13:00:42;;;;;;;18.40;9.80;;;6.90;99.90;;;;;;4907224;29;20459;-80
2022/01/19 13:03:24;;;;;;;15.40;9.53;;;6.90;99.90;;;;;;4901991;29;20546;-80
2022/01/19 13:05:54;;;;;;;12.30;9.00;;;6.80;99.90;;;;;;4902064;29;20468;-79
2022/01/19 13:08:31;;;;;;;14.50;9.23;;;6.70;99.90;;;;;;4901914;29;21064;-79
2022/01/19 13:11:05;;;;;;;12.63;9.13;;;6.60;99.90;;;;;;4900863;29;20909;-80
2022/01/19 13:13:47;;;;;;;11.97;9.50;;;6.50;99.90;;;;;;4900432;29;20466;-80
2022/01/19 13:16:14;;;;;;;15.20;9.80;;;6.40;99.90;;;;;;4899818;29;20546;-80
2022/01/19 13:18:43;;;;;;;12.80;8.83;;;6.30;99.90;;;;;;4914673;29;20530;-80
2022/01/19 13:21:13;;;;;;;16.03;9.83;;;6.20;99.90;;;;;;4918673;29;20454;-80
2022/01/19 13:23:56;;;;;;;13.90;9.67;;;6.20;99.90;;;;;;4919120;29;20459;-80
2022/01/19 13:26:24;;;;;;;16.97;9.60;;;6.20;99.90;;;;;;4920641;29;20506;-80
2022/01/19 13:28:52;;;;;;;16.33;11.00;;;6.30;99.90;;;;;;4919368;29;20533;-80
2022/01/19 13:31:20;;;;;;;11.90;8.50;;;6.40;99.90;;;;;;4919079;29;20995;-80
2022/01/19 13:33:55;;;;;;;15.00;8.83;;;6.30;99.90;;;;;;4919067;29;20486;-80
2022/01/19 13:36:26;;;;;;;16.93;9.73;;;6.30;99.90;;;;;;4919308;29;20470;-80
2022/01/19 13:38:54;;;;;;;10.30;7.80;;;6.20;99.90;;;;;;4921363;29;21113;-80
2022/01/19 13:41:21;;;;;;;13.73;8.27;;;6.20;99.90;;;;;;4919809;29;20471;-80
2022/01/19 13:43:52;;;;;;;11.20;7.70;;;6.10;99.90;;;;;;4919347;29;20967;-80
2022/01/19 13:46:24;;;;;;;13.27;8.80;;;6.10;99.90;;;;;;4919522;29;20538;-80
2022/01/19 13:48:56;;;;;;;10.23;7.83;;;6.20;99.90;;;;;;4919481;29;20866;-70
2022/01/19 13:51:25;;;;;;;16.67;7.07;;;6.10;99.90;;;;;;4909843;29;20455;-69
2022/01/19 13:53:53;;;;;;;10.53;6.63;;;6.10;99.90;;;;;;4908597;29;20542;-69
2022/01/19 13:56:26;;;;;;;11.47;6.73;;;6.10;99.90;;;;;;4907697;29;20503;-68
2022/01/19 13:58:59;;;;;;;11.23;7.10;;;6.10;99.90;;;;;;4906528;29;20447;-81
2022/01/19 14:01:35;;;;;;;10.83;7.30;;;6.20;99.90;;;;;;4910719;29;20474;-80
2022/01/19 14:04:06;;;;;;;10.60;6.87;;;6.30;99.90;;;;;;4902487;29;20478;-79
2022/01/19 14:06:35;;;;;;;17.93;6.40;;;6.40;99.90;;;;;;4903104;29;20485;-77
2022/01/19 14:09:13;;;;;;;9.80;6.40;;;6.50;99.90;;;;;;4902081;29;20501;-80
2022/01/19 14:11:42;;;;;;;12.13;6.13;;;6.60;99.90;;;;;;4903701;29;20466;-80
2022/01/19 14:14:12;;;;;;;10.10;5.30;;;6.60;99.90;;;;;;4902321;29;20531;-80
2022/01/19 14:16:44;;;;;;;6.83;4.80;;;6.70;99.90;;;;;;4904008;29;20466;-80
2022/01/19 14:19:15;;;;;;;7.93;4.77;;;6.60;99.90;;;;;;4902740;29;20479;-79
2022/01/19 14:22:01;;;;;;;7.23;5.53;;;6.50;99.90;;;;;;4901971;29;20483;-78
2022/01/19 14:24:29;;;;;;;6.87;5.10;;;6.40;99.90;;;;;;4901968;29;20468;-80
2022/01/19 14:26:58;;;;;;;8.30;5.17;;;6.40;99.90;;;;;;4906759;29;20551;-79
2022/01/19 14:29:27;;;;;;;9.50;5.73;;;6.30;99.90;;;;;;4910526;29;20552;-80
2022/01/19 14:31:55;;;;;;;9.67;5.27;;;6.30;99.90;;;;;;4900217;29;20455;-79
2022/01/19 14:34:38;;;;;;;9.60;6.00;;;6.20;99.90;;;;;;4900673;29;20998;-80
2022/01/19 14:37:13;;;;;;;6.83;4.70;;;6.20;99.90;;;;;;4899998;29;20988;-79
2022/01/19 14:39:51;;;;;;;6.87;4.70;;;6.20;99.90;;;;;;4900700;29;20455;-79
2022/01/19 14:42:20;;;;;;;7.07;5.43;;;6.20;99.90;;;;;;4899781;29;21046;-79
2022/01/19 14:44:59;;;;;;;9.80;6.07;;;6.10;99.90;;;;;;4900489;29;20518;-79
2022/01/19 14:47:37;;;;;;;11.50;9.10;;;6.10;99.90;;;;;;4901063;29;20478;-79
2022/01/19 14:50:22;;;;;;;7.00;5.10;;;6.10;99.90;;;;;;4900461;29;20491;-79
2022/01/19 14:52:50;;;;;;;13.97;7.07;;;6.10;99.90;;;;;;4900638;29;20535;-79
2022/01/19 14:55:19;;;;;;;11.90;7.30;;;6.00;99.90;;;;;;4901161;29;20472;-79
2022/01/19 14:57:47;;;;;;;11.30;7.07;;;6.00;99.90;;;;;;4901146;29;20536;-79
2022/01/19 15:00:17;;;;;;;10.30;6.40;;;6.10;99.90;;;;;;4901289;29;20477;-78
2022/01/19 15:02:46;;;;;;;10.53;6.50;;;6.00;99.90;;;;;;4902173;29;20482;-78
2022/01/19 15:05:14;;;;;;;9.90;7.00;;;6.00;99.90;;;;;;4901900;29;20475;-78
2022/01/19 15:07:41;;;;;;;12.07;7.97;;;5.90;99.90;;;;;;4901249;29;20482;-79
2022/01/19 15:10:09;;;;;;;16.47;8.50;;;5.80;99.90;;;;;;4898803;29;20495;-68
2022/01/19 15:12:38;;;;;;;16.33;8.10;;;5.80;99.90;;;;;;4897035;29;20462;-68
2022/01/19 15:15:09;;;;;;;10.20;7.10;;;5.80;99.90;;;;;;4899656;29;20574;-80
2022/01/19 15:17:38;;;;;;;11.50;7.13;;;5.70;99.90;;;;;;4902564;29;20462;-80
2022/01/19 15:20:06;;;;;;;14.17;7.93;;;5.70;99.90;;;;;;4902272;29;20470;-80
2022/01/19 15:22:33;;;;;;;15.97;8.10;;;5.70;99.90;;;;;;4901954;29;20467;-80
2022/01/19 15:25:01;;;;;;;12.10;7.60;;;5.60;99.90;;;;;;4906239;29;20986;-79
2022/01/19 15:27:28;;;;;;;23.73;12.67;;;5.60;99.90;;;;;;4910134;29;20546;-80
2022/01/19 15:29:54;;;;;;;22.30;11.20;;;5.60;99.90;;;;;;4915071;29;20581;-80
2022/01/19 15:32:21;;;;;;;19.67;11.17;;;5.60;99.90;;;;;;4922018;29;20493;-80
2022/01/19 15:34:50;;;;;;;18.83;10.33;;;5.60;99.90;;;;;;4921042;29;20482;-79
2022/01/19 15:37:17;;;;;;;14.03;9.07;;;5.50;99.90;;;;;;4921071;29;20462;-79
2022/01/19 15:39:47;;;;;;;14.00;9.20;;;5.50;99.90;;;;;;4920930;29;20514;-80
2022/01/19 15:42:15;;;;;;;16.43;8.70;;;5.50;99.90;;;;;;4920925;29;20895;-80
2022/01/19 15:44:43;;;;;;;12.70;8.40;;;5.50;99.90;;;;;;4920797;29;20481;-80
2022/01/19 15:47:10;;;;;;;12.00;8.73;;;5.50;99.90;;;;;;4921126;29;20568;-80
2022/01/19 15:49:37;;;;;;;14.73;9.20;;;5.40;99.90;;;;;;4920743;29;20530;-79
2022/01/19 15:52:06;;;;;;;15.90;8.57;;;5.40;99.90;;;;;;4922186;29;20485;-80
2022/01/19 15:54:33;;;;;;;17.10;10.63;;;5.40;99.90;;;;;;4922498;29;21046;-79
2022/01/19 15:57:01;;;;;;;16.53;9.60;;;5.30;99.90;;;;;;4921677;29;20470;-80
2022/01/19 15:59:28;;;;;;;12.50;9.30;;;5.30;99.90;;;;;;4922870;29;20493;-80
2022/01/19 16:01:55;;;;;;;13.53;9.17;;;5.40;99.90;;;;;;4922921;29;20491;-79
2022/01/19 16:04:23;;;;;;;17.33;10.70;;;5.30;99.90;;;;;;4922762;29;20455;-80
2022/01/19 16:06:54;;;;;;;14.43;8.70;;;5.20;99.90;;;;;;4922872;29;20560;-79
2022/01/19 16:09:23;;;;;;;17.60;11.13;;;5.10;99.90;;;;;;4924105;29;20851;-80
2022/01/19 16:11:52;;;;;;;13.67;9.60;;;5.10;99.90;;;;;;4923971;29;20525;-79
2022/01/19 16:14:19;;;;;;;17.13;9.70;;;5.10;99.90;;;;;;4931146;29;20974;-78
2022/01/19 16:16:47;;;;;;;18.50;10.23;;;5.10;99.90;;;;;;4924247;29;20479;-79
2022/01/19 16:19:14;;;;;;;17.33;10.07;;;5.00;99.90;;;;;;4920465;29;20463;-80
2022/01/19 16:21:43;;;;;;;15.60;10.17;;;5.00;99.90;;;;;;4921968;29;20486;-80
2022/01/19 16:26:57;;;;;;;18.70;9.80;;;4.90;99.90;;;;;;4922424;29;20442;-80
2022/01/19 16:29:25;;;;;;;14.37;9.40;;;5.00;99.90;;;;;;4921634;29;20494;-79
2022/01/19 16:31:55;;;;;;;16.50;9.80;;;5.00;99.90;;;;;;4920985;29;20486;-79
2022/01/19 16:34:22;;;;;;;16.63;10.13;;;5.00;99.90;;;;;;4920781;29;20462;-79
2022/01/19 16:36:49;;;;;;;20.00;10.03;;;5.00;99.90;;;;;;4921984;29;20507;-79
2022/01/19 16:39:18;;;;;;;15.73;10.47;;;4.90;99.90;;;;;;4920914;29;20482;-79
2022/01/19 16:41:45;;;;;;;19.70;10.37;;;4.90;99.90;;;;;;4923839;29;21042;-79
2022/01/19 16:44:14;;;;;;;14.83;10.40;;;4.90;99.90;;;;;;4923310;29;20462;-79
2022/01/19 16:46:43;;;;;;;15.77;9.40;;;4.80;99.90;;;;;;4924554;29;20458;-78
2022/01/19 16:49:17;;;;;;;16.00;10.50;;;4.80;99.90;;;;;;4923264;29;20473;-79
2022/01/19 16:51:44;;;;;;;19.37;9.33;;;4.80;99.90;;;;;;4923227;29;20459;-79
2022/01/19 16:54:11;;;;;;;20.37;10.60;;;4.80;99.90;;;;;;4922044;29;20490;-79
2022/01/19 16:56:38;;;;;;;15.80;10.00;;;4.80;99.90;;;;;;4921511;29;20478;-79
2022/01/19 16:59:06;;;;;;;15.30;10.40;;;4.80;99.90;;;;;;4921483;29;20497;-79
2022/01/19 17:01:35;;;;;;;15.20;10.43;;;4.70;99.90;;;;;;4921003;29;20886;-79
2022/01/19 17:04:02;;;;;;;16.03;9.53;;;4.70;99.90;;;;;;4920912;29;20497;-79
2022/01/19 17:06:29;;;;;;;14.90;9.43;;;4.70;99.90;;;;;;4920564;29;20510;-81
2022/01/19 17:08:56;;;;;;;16.70;10.57;;;4.70;99.90;;;;;;4915385;29;20546;-78
2022/01/19 17:11:23;;;;;;;17.50;10.67;;;4.60;99.90;;;;;;4921753;29;20494;-77
2022/01/19 17:13:58;;;;;;;15.80;9.87;;;4.60;99.90;;;;;;4910451;29;20511;-79
2022/01/19 17:16:32;;;;;;;15.53;9.17;;;4.60;99.90;;;;;;4957576;23;20505;-74
2022/01/19 17:19:01;;;;;;;16.90;9.67;;;4.60;99.90;;;;;;4975562;28;20471;-71
2022/01/19 17:21:29;;;;;;;17.47;9.60;;;4.60;99.90;;;;;;4976034;28;20479;-73
2022/01/19 17:23:57;;;;;;;16.27;10.63;;;4.60;99.90;;;;;;4975646;28;20451;-65
2022/01/19 17:26:24;;;;;;;18.23;10.03;;;4.60;99.90;;;;;;4952894;28;20466;-64
2022/01/19 17:28:52;;;;;;;16.70;9.80;;;4.60;99.90;;;;;;4952750;29;20507;-65
2022/01/19 17:31:20;;;;;;;22.73;13.80;;;4.60;99.90;;;;;;4951897;28;20925;-65
2022/01/19 17:33:47;;;;;;;21.50;13.93;;;4.60;99.90;;;;;;4936938;29;20986;-65
2022/01/19 17:36:15;;;;;;;16.67;10.90;;;4.60;99.90;;;;;;4937532;29;20473;-72
2022/01/19 17:38:42;;;;;;;26.17;14.83;;;4.60;99.90;;;;;;4937020;29;20481;-72
2022/01/19 17:41:10;;;;;;;17.57;10.30;;;4.60;99.90;;;;;;4937082;29;20485;-73
2022/01/19 17:43:37;;;;;;;21.40;12.67;;;4.50;99.90;;;;;;4937169;29;20509;-73
2022/01/19 17:46:11;;;;;;;13.47;10.07;;;4.50;99.90;;;;;;4936907;29;20978;-72
2022/01/19 17:48:50;;;;;;;18.23;10.40;;;4.50;99.90;;;;;;4936882;29;20458;-73
2022/01/19 17:51:35;;;;;;;22.10;11.40;;;4.50;99.90;;;;;;4936925;29;20493;-73
2022/01/19 17:54:02;;;;;;;18.63;11.70;;;4.50;99.90;;;;;;4938881;29;20450;-76
2022/01/19 17:56:29;;;;;;;21.63;12.70;;;4.50;99.90;;;;;;4936686;29;20903;-71
2022/01/19 17:58:57;;;;;;;20.50;12.20;;;4.50;99.90;;;;;;4936246;29;20454;-72
2022/01/19 18:01:25;;;;;;;22.17;13.40;;;4.50;99.90;;;;;;4936672;29;20533;-71
2022/01/19 18:03:53;;;;;;;18.47;12.03;;;4.50;99.90;;;;;;4936534;29;20501;-71
2022/01/19 18:06:21;;;;;;;23.90;12.93;;;4.40;99.90;;;;;;4936407;29;20477;-72
2022/01/19 18:08:49;;;;;;;32.97;20.23;;;4.40;99.90;;;;;;4936230;29;20522;-72